Time;durP1;ratioP1;P1;durP2;ratioP2;P2;SDS_P1;SDS_P2;PMS_P1;PMS_P2;Temp;Humidity;BMP_temperature;BMP_pressure;BME280_temperature;BME280_humidity;BME280_pressure;Samples;Min_cycle;Max_cycle;Signal;HPM_P1;HPM_P2
2023/06/04 00:01:23;;;;;;;7.75;4.90;;;25.90;99.90;;;;;;5034469;28;20084;-49
2023/06/04 00:03:48;;;;;;;8.30;4.75;;;25.90;99.90;;;;;;5033841;28;20030;-49
2023/06/04 00:06:14;;;;;;;6.93;4.78;;;25.90;99.90;;;;;;5032888;28;20232;-49
2023/06/04 00:08:40;;;;;;;6.45;4.50;;;25.90;99.90;;;;;;5034467;28;20112;-49
2023/06/04 00:11:06;;;;;;;5.35;4.68;;;25.90;99.90;;;;;;5034350;28;20051;-49
2023/06/04 00:13:31;;;;;;;5.50;4.20;;;25.90;99.90;;;;;;5034322;28;20017;-49
2023/06/04 00:15:57;;;;;;;6.15;4.90;;;25.90;99.90;;;;;;5034528;28;20021;-49
2023/06/04 00:18:23;;;;;;;6.07;4.30;;;25.90;99.90;;;;;;5033105;28;20101;-49
2023/06/04 00:20:48;;;;;;;4.80;4.30;;;25.90;99.90;;;;;;5034638;28;20033;-49
2023/06/04 00:23:14;;;;;;;6.93;5.20;;;25.90;99.90;;;;;;5032822;28;20053;-49
2023/06/04 00:25:40;;;;;;;5.28;4.55;;;25.90;99.90;;;;;;5034529;28;20034;-50
2023/06/04 00:28:06;;;;;;;5.40;4.35;;;25.90;99.90;;;;;;5034005;28;20033;-48
2023/06/04 00:30:31;;;;;;;7.78;4.25;;;25.90;99.90;;;;;;5034331;28;20505;-49
2023/06/04 00:32:57;;;;;;;7.15;4.40;;;25.90;99.90;;;;;;5030275;28;20094;-49
2023/06/04 00:35:23;;;;;;;6.18;4.40;;;25.90;99.90;;;;;;5031817;28;20462;-48
2023/06/04 00:37:49;;;;;;;4.90;4.50;;;25.90;99.90;;;;;;5034194;28;20425;-49
2023/06/04 00:40:15;;;;;;;7.13;4.72;;;25.90;99.90;;;;;;5034109;28;20075;-49
2023/06/04 00:42:40;;;;;;;6.57;4.43;;;25.90;99.90;;;;;;5033845;28;20026;-49
2023/06/04 00:45:09;;;;;;;6.20;4.45;;;25.90;99.90;;;;;;5032807;28;20025;-50
2023/06/04 00:47:35;;;;;;;7.70;3.90;;;25.90;99.90;;;;;;5033995;28;20053;-49
2023/06/04 00:50:01;;;;;;;6.70;4.38;;;25.90;99.90;;;;;;5033954;28;20382;-49
2023/06/04 00:52:27;;;;;;;6.28;4.78;;;25.90;99.90;;;;;;5033951;28;20363;-49
2023/06/04 00:54:54;;;;;;;6.38;4.30;;;25.90;99.90;;;;;;5034195;28;20104;-49
2023/06/04 00:57:22;;;;;;;9.17;4.57;;;25.90;99.90;;;;;;5033769;28;20026;-49
2023/06/04 00:59:48;;;;;;;4.85;4.35;;;25.90;99.90;;;;;;5033955;28;20043;-49
2023/06/04 01:02:22;;;;;;;4.93;3.72;;;25.90;99.90;;;;;;5046501;22;20056;-57
2023/06/04 01:05:28;;;;;;;4.85;4.18;;;25.90;99.90;;;;;;5029765;28;20029;-57
2023/06/04 01:07:57;;;;;;;5.47;4.03;;;25.80;99.90;;;;;;5010247;28;20494;-57
2023/06/04 01:10:23;;;;;;;5.40;4.22;;;25.90;99.90;;;;;;5012664;28;20501;-57
2023/06/04 01:12:48;;;;;;;5.32;4.07;;;25.80;99.90;;;;;;5014063;28;20030;-57
2023/06/04 01:15:14;;;;;;;7.10;4.55;;;25.90;99.90;;;;;;5028455;28;20040;-57
2023/06/04 01:17:46;;;;;;;5.07;4.45;;;25.80;99.90;;;;;;5020808;28;20449;-57
2023/06/04 01:20:18;;;;;;;5.03;3.95;;;25.80;99.90;;;;;;5032976;28;20063;-57
2023/06/04 01:22:59;;;;;;;5.35;4.25;;;25.80;99.90;;;;;;5033250;28;20049;-57
2023/06/04 01:25:38;;;;;;;4.43;3.72;;;25.80;99.90;;;;;;5033533;28;20048;-57
2023/06/04 01:28:05;;;;;;;4.95;4.18;;;25.80;99.90;;;;;;5033194;28;20021;-57
2023/06/04 01:30:34;;;;;;;5.20;4.20;;;25.80;99.90;;;;;;5031969;28;20018;-57
2023/06/04 01:33:01;;;;;;;5.75;3.97;;;25.80;99.90;;;;;;5032749;28;20480;-57
2023/06/04 01:35:28;;;;;;;6.55;3.70;;;25.80;99.90;;;;;;5033151;28;20421;-58
2023/06/04 01:37:55;;;;;;;8.95;4.68;;;25.80;99.90;;;;;;5033087;28;20470;-57
2023/06/04 01:40:21;;;;;;;6.77;4.47;;;25.80;99.90;;;;;;5033068;28;20040;-57
2023/06/04 01:42:47;;;;;;;4.25;3.58;;;25.80;99.90;;;;;;5033245;28;20108;-58
2023/06/04 01:45:12;;;;;;;5.72;4.25;;;25.80;99.90;;;;;;5032847;28;20459;-57
2023/06/04 01:47:39;;;;;;;4.50;3.63;;;25.80;99.90;;;;;;5023039;28;20037;-57
2023/06/04 01:50:09;;;;;;;8.27;3.75;;;25.80;99.90;;;;;;5015318;28;20492;-57
2023/06/04 01:52:39;;;;;;;4.68;3.80;;;25.80;99.90;;;;;;5032955;28;20022;-57
2023/06/04 01:55:07;;;;;;;5.22;3.67;;;25.80;99.90;;;;;;5032839;28;20020;-57
2023/06/04 01:57:33;;;;;;;4.85;3.70;;;25.80;99.90;;;;;;5032932;28;20029;-57
2023/06/04 02:00:04;;;;;;;4.93;3.90;;;25.80;99.90;;;;;;5031853;28;20022;-57
2023/06/04 02:02:30;;;;;;;5.32;4.50;;;25.80;99.90;;;;;;5032534;28;20520;-56
2023/06/04 02:04:56;;;;;;;4.50;4.10;;;25.80;99.90;;;;;;5032461;28;20026;-56
2023/06/04 02:07:22;;;;;;;4.57;3.72;;;25.80;99.90;;;;;;5031917;28;20033;-56
2023/06/04 02:09:48;;;;;;;5.57;3.65;;;25.80;99.90;;;;;;5032446;28;20029;-56
2023/06/04 02:12:15;;;;;;;4.30;3.83;;;25.80;99.90;;;;;;5032681;28;20117;-56
2023/06/04 02:14:47;;;;;;;4.43;3.72;;;25.80;99.90;;;;;;5021986;28;20022;-56
2023/06/04 02:17:12;;;;;;;6.10;3.70;;;25.70;99.90;;;;;;5032620;28;20158;-56
2023/06/04 02:19:49;;;;;;;5.20;4.10;;;25.80;99.90;;;;;;5014946;28;20112;-56
2023/06/04 02:22:16;;;;;;;5.85;4.38;;;25.70;99.90;;;;;;5007569;28;20033;-57
2023/06/04 02:24:42;;;;;;;4.57;3.65;;;25.70;99.90;;;;;;5036569;28;20030;-56
2023/06/04 02:27:09;;;;;;;4.00;3.58;;;25.70;99.90;;;;;;5036714;28;20129;-56
2023/06/04 02:29:35;;;;;;;4.50;3.50;;;25.70;99.90;;;;;;5036470;28;20014;-57
2023/06/04 02:32:01;;;;;;;4.22;3.33;;;25.70;99.90;;;;;;5036562;28;20022;-56
2023/06/04 02:34:27;;;;;;;3.60;3.25;;;25.70;99.90;;;;;;5036098;28;20410;-57
2023/06/04 02:36:53;;;;;;;3.95;3.40;;;25.70;99.90;;;;;;5036467;28;20018;-58
2023/06/04 02:39:20;;;;;;;4.90;3.70;;;25.70;99.90;;;;;;5018489;28;20032;-60
2023/06/04 02:41:46;;;;;;;4.45;3.60;;;25.70;99.90;;;;;;5036590;28;20026;-57
2023/06/04 02:44:12;;;;;;;4.05;3.65;;;25.70;99.90;;;;;;5034811;28;20026;-57
2023/06/04 02:46:38;;;;;;;3.90;3.40;;;25.70;99.90;;;;;;5035983;28;20481;-58
2023/06/04 02:49:04;;;;;;;5.20;3.95;;;25.70;99.90;;;;;;5036116;28;20112;-57
2023/06/04 02:51:30;;;;;;;6.47;4.15;;;25.70;99.90;;;;;;5036078;28;20024;-58
2023/06/04 02:53:56;;;;;;;5.75;3.88;;;25.70;99.90;;;;;;5036195;28;20092;-57
2023/06/04 02:56:22;;;;;;;5.80;3.60;;;25.70;99.90;;;;;;5035921;28;20486;-58
2023/06/04 02:58:55;;;;;;;5.40;3.92;;;25.70;99.90;;;;;;5035927;28;20080;-58
2023/06/04 03:01:25;;;;;;;4.72;3.60;;;25.70;99.90;;;;;;5048570;22;20053;-52
2023/06/04 03:03:52;;;;;;;5.38;4.22;;;25.70;99.90;;;;;;5036049;28;20155;-52
2023/06/04 03:06:20;;;;;;;5.28;4.30;;;25.70;99.90;;;;;;5035757;28;20075;-52
2023/06/04 03:08:47;;;;;;;4.75;3.55;;;25.70;99.90;;;;;;5034339;28;20021;-52
2023/06/04 03:11:13;;;;;;;4.38;3.50;;;25.70;99.90;;;;;;5035742;28;20060;-52
2023/06/04 03:13:39;;;;;;;7.20;3.67;;;25.60;99.90;;;;;;5035780;28;20482;-53
2023/06/04 03:16:09;;;;;;;5.20;3.88;;;25.70;99.90;;;;;;5035927;28;20033;-53
2023/06/04 03:18:37;;;;;;;4.88;4.10;;;25.70;99.90;;;;;;5035897;28;20045;-53
2023/06/04 03:21:03;;;;;;;;;;;25.70;99.90;;;;;;5036141;28;20022;-53
2023/06/04 03:23:29;;;;;;;5.53;3.70;;;25.60;99.90;;;;;;5035675;28;20308;-53
2023/06/04 03:25:54;;;;;;;4.28;3.88;;;25.70;99.90;;;;;;5035226;28;20038;-53
2023/06/04 03:28:20;;;;;;;4.97;4.05;;;25.60;99.90;;;;;;5035648;28;20029;-53
2023/06/04 03:30:46;;;;;;;5.55;3.70;;;25.60;99.90;;;;;;5035331;28;20084;-54
2023/06/04 03:33:12;;;;;;;4.22;3.70;;;25.60;99.90;;;;;;5035267;28;20058;-53
2023/06/04 03:35:39;;;;;;;4.43;3.72;;;25.60;99.90;;;;;;5035256;28;20091;-53
2023/06/04 03:38:05;;;;;;;;;;;25.60;99.90;;;;;;5035613;28;20032;-53
2023/06/04 03:40:31;;;;;;;3.92;3.33;;;25.60;99.90;;;;;;5035303;28;19905;-53
2023/06/04 03:42:57;;;;;;;5.15;3.83;;;25.60;99.90;;;;;;5034934;28;20466;-53
2023/06/04 03:45:22;;;;;;;5.72;3.45;;;25.60;99.90;;;;;;5035080;28;20041;-53
2023/06/04 03:47:48;;;;;;;4.40;3.53;;;25.60;99.90;;;;;;5035062;28;20037;-52
2023/06/04 03:50:14;;;;;;;4.03;3.60;;;25.60;99.90;;;;;;5035097;28;20014;-53
2023/06/04 03:52:39;;;;;;;5.07;3.70;;;25.60;99.90;;;;;;5035006;28;20022;-53
2023/06/04 03:55:05;;;;;;;4.18;3.58;;;25.60;99.90;;;;;;5017333;28;20067;-53
2023/06/04 03:57:32;;;;;;;4.38;3.60;;;25.60;99.90;;;;;;5034807;28;20021;-52
2023/06/04 03:59:58;;;;;;;4.53;3.73;;;25.60;99.90;;;;;;5035085;28;20025;-53
2023/06/04 04:02:24;;;;;;;4.25;3.50;;;25.60;99.90;;;;;;5033501;28;20041;-53
2023/06/04 04:04:54;;;;;;;3.95;3.55;;;25.60;99.90;;;;;;5034945;28;20450;-53
2023/06/04 04:07:20;;;;;;;4.43;3.40;;;25.60;99.90;;;;;;5034536;28;20040;-54
2023/06/04 04:09:46;;;;;;;7.13;3.78;;;25.60;99.90;;;;;;5034955;28;20013;-54
2023/06/04 04:12:12;;;;;;;3.95;3.47;;;25.60;99.90;;;;;;5034991;28;20438;-54
2023/06/04 04:14:38;;;;;;;5.10;3.42;;;25.50;99.90;;;;;;5034647;28;20080;-54
2023/06/04 04:17:03;;;;;;;3.10;2.80;;;25.60;99.90;;;;;;5033330;28;20048;-54
2023/06/04 04:19:30;;;;;;;4.15;3.75;;;25.60;99.90;;;;;;5034529;28;20017;-54
2023/06/04 04:21:55;;;;;;;4.15;3.58;;;25.60;99.90;;;;;;5034366;28;20053;-54
2023/06/04 04:24:25;;;;;;;3.80;3.33;;;25.60;99.90;;;;;;5034361;28;20539;-53
2023/06/04 04:26:55;;;;;;;5.35;2.90;;;25.60;99.90;;;;;;5032665;28;20044;-54
2023/06/04 04:29:24;;;;;;;3.60;3.20;;;25.50;99.90;;;;;;5034285;28;20024;-53
2023/06/04 04:31:57;;;;;;;4.90;3.67;;;25.50;99.90;;;;;;5034172;28;20087;-53
2023/06/04 04:34:25;;;;;;;3.72;3.25;;;25.50;99.90;;;;;;5032372;28;20025;-53
2023/06/04 04:36:56;;;;;;;4.53;2.95;;;25.50;99.90;;;;;;5032970;28;20458;-53
2023/06/04 04:39:25;;;;;;;4.05;3.42;;;25.50;99.90;;;;;;5034128;28;20493;-53
2023/06/04 04:41:51;;;;;;;4.63;3.30;;;25.50;99.90;;;;;;5034175;28;20033;-54
2023/06/04 04:44:17;;;;;;;5.10;3.53;;;25.50;99.90;;;;;;5033400;28;20036;-54
2023/06/04 04:46:43;;;;;;;3.80;3.40;;;25.50;99.90;;;;;;5034016;28;20033;-54
2023/06/04 04:49:09;;;;;;;4.60;3.42;;;25.50;99.90;;;;;;5033820;28;20021;-53
2023/06/04 04:51:35;;;;;;;5.20;3.55;;;25.50;99.90;;;;;;5033877;28;20026;-54
2023/06/04 04:54:01;;;;;;;4.25;3.30;;;25.50;99.90;;;;;;5033905;28;20432;-54
2023/06/04 04:56:28;;;;;;;4.90;4.07;;;25.50;99.90;;;;;;5033772;28;20029;-54
2023/06/04 04:58:54;;;;;;;3.63;3.33;;;25.50;99.90;;;;;;5033509;28;20476;-53
2023/06/04 05:01:21;;;;;;;3.92;3.53;;;25.50;99.90;;;;;;5033517;28;20068;-54
2023/06/04 05:03:48;;;;;;;4.53;3.50;;;25.50;99.90;;;;;;5033635;28;20493;-54
2023/06/04 05:06:14;;;;;;;3.67;3.33;;;25.50;99.90;;;;;;5030510;28;20041;-54
2023/06/04 05:08:41;;;;;;;3.30;3.00;;;25.50;99.90;;;;;;5032343;28;20033;-54
2023/06/04 05:11:07;;;;;;;3.57;3.03;;;25.50;99.90;;;;;;5033266;28;20470;-54
2023/06/04 05:13:33;;;;;;;5.40;3.78;;;25.50;99.90;;;;;;5033383;28;20079;-53
2023/06/04 05:15:59;;;;;;;3.50;3.20;;;25.50;99.90;;;;;;5033572;28;20021;-54
2023/06/04 05:18:28;;;;;;;4.60;3.33;;;25.50;99.90;;;;;;5033466;28;20053;-54
2023/06/04 05:21:00;;;;;;;5.05;3.08;;;25.50;99.90;;;;;;5033318;28;20420;-53
2023/06/04 05:23:34;;;;;;;3.45;2.92;;;25.40;99.90;;;;;;5033400;28;20087;-54
2023/06/04 05:26:03;;;;;;;4.20;2.92;;;25.50;99.90;;;;;;5033075;28;20033;-53
2023/06/04 05:28:29;;;;;;;3.28;2.97;;;25.50;99.90;;;;;;5033315;28;20017;-54
2023/06/04 05:30:59;;;;;;;3.75;3.10;;;25.50;99.90;;;;;;5033227;28;20030;-54
2023/06/04 05:33:26;;;;;;;2.97;2.67;;;25.50;99.90;;;;;;5033116;28;20521;-53
2023/06/04 05:35:53;;;;;;;4.70;2.88;;;25.50;99.90;;;;;;5033137;28;20025;-53
2023/06/04 05:38:20;;;;;;;3.33;2.90;;;25.50;99.90;;;;;;5033320;28;20104;-53
2023/06/04 05:40:46;;;;;;;4.15;3.33;;;25.50;99.90;;;;;;5033287;28;20036;-53
2023/06/04 05:43:12;;;;;;;3.03;2.72;;;25.50;99.90;;;;;;5033035;28;20025;-53
2023/06/04 05:45:38;;;;;;;3.53;3.20;;;25.40;99.90;;;;;;5033152;28;20382;-52
2023/06/04 05:48:04;;;;;;;3.70;3.17;;;25.40;99.90;;;;;;5032917;28;20021;-53
2023/06/04 05:50:31;;;;;;;3.22;2.80;;;25.40;99.90;;;;;;5032858;28;20072;-54
2023/06/04 05:52:57;;;;;;;3.97;2.70;;;25.50;99.90;;;;;;5032964;28;20032;-53
2023/06/04 05:55:23;;;;;;;4.25;3.10;;;25.40;99.90;;;;;;5032127;28;20034;-53
2023/06/04 05:57:51;;;;;;;3.20;2.83;;;25.40;99.90;;;;;;5031356;28;20067;-53
2023/06/04 06:00:17;;;;;;;3.10;2.53;;;25.50;99.90;;;;;;5032764;28;20457;-53
2023/06/04 06:02:45;;;;;;;5.40;2.90;;;25.50;99.90;;;;;;5032764;28;20029;-52
2023/06/04 06:05:11;;;;;;;3.35;2.97;;;25.50;99.90;;;;;;5033026;28;20450;-53
2023/06/04 06:07:37;;;;;;;3.40;3.10;;;25.40;99.90;;;;;;5032907;28;20029;-52
2023/06/04 06:10:03;;;;;;;3.85;3.38;;;25.50;99.90;;;;;;5032982;28;20385;-52
2023/06/04 06:12:29;;;;;;;3.55;3.10;;;25.50;99.90;;;;;;5032743;28;20029;-53
2023/06/04 06:14:55;;;;;;;3.25;2.95;;;25.50;99.90;;;;;;5032974;28;20017;-53
2023/06/04 06:17:21;;;;;;;3.38;2.72;;;25.50;99.90;;;;;;5032785;28;20111;-53
2023/06/04 06:19:46;;;;;;;3.35;2.90;;;25.50;99.90;;;;;;5032648;28;20067;-53
2023/06/04 06:22:12;;;;;;;2.92;2.38;;;25.50;99.90;;;;;;5032661;28;20040;-53
2023/06/04 06:24:39;;;;;;;3.72;2.90;;;25.40;99.90;;;;;;5032648;28;20440;-53
2023/06/04 06:27:05;;;;;;;4.78;3.13;;;25.50;99.90;;;;;;5032632;28;20037;-53
2023/06/04 06:29:31;;;;;;;3.40;3.10;;;25.50;99.90;;;;;;5032348;28;20079;-54
2023/06/04 06:31:57;;;;;;;3.60;3.17;;;25.50;99.90;;;;;;5032688;28;20421;-53
2023/06/04 06:34:23;;;;;;;4.20;3.10;;;25.50;99.90;;;;;;5032297;28;20048;-54
2023/06/04 06:36:49;;;;;;;3.28;2.97;;;25.40;99.90;;;;;;5032670;28;20025;-54
2023/06/04 06:39:15;;;;;;;3.58;3.00;;;25.50;99.90;;;;;;5032202;28;20022;-53
2023/06/04 06:41:41;;;;;;;5.03;3.15;;;25.50;99.90;;;;;;5032415;28;20053;-53
2023/06/04 06:44:07;;;;;;;3.65;3.13;;;25.50;99.90;;;;;;5031085;28;20083;-53
2023/06/04 06:46:33;;;;;;;3.75;2.80;;;25.50;99.90;;;;;;5032529;28;20038;-52
2023/06/04 06:48:59;;;;;;;3.38;3.00;;;25.50;99.90;;;;;;5032328;28;20592;-52
2023/06/04 06:51:25;;;;;;;4.22;3.47;;;25.50;99.90;;;;;;5032505;28;20350;-53
2023/06/04 06:53:51;;;;;;;3.38;3.08;;;25.50;99.90;;;;;;5032471;28;20028;-53
2023/06/04 06:56:17;;;;;;;4.30;3.20;;;25.50;99.90;;;;;;5032267;28;20025;-53
2023/06/04 06:58:45;;;;;;;3.17;2.88;;;25.50;99.90;;;;;;5032524;28;20079;-58
2023/06/04 07:01:11;;;;;;;3.75;2.67;;;25.50;99.90;;;;;;5031985;28;20060;-53
2023/06/04 07:03:38;;;;;;;3.47;2.90;;;25.50;99.90;;;;;;5024746;28;20026;-53
2023/06/04 07:06:03;;;;;;;3.35;3.05;;;25.50;99.90;;;;;;5032509;28;20021;-53
2023/06/04 07:08:29;;;;;;;3.83;2.70;;;25.50;99.90;;;;;;5034737;28;20022;-53
2023/06/04 07:10:55;;;;;;;3.08;2.78;;;25.50;99.90;;;;;;5022651;28;20060;-54
2023/06/04 07:13:21;;;;;;;4.18;3.78;;;25.50;99.90;;;;;;5035858;28;20018;-53
2023/06/04 07:15:46;;;;;;;5.55;3.00;;;25.50;99.90;;;;;;5034846;28;20552;-53
2023/06/04 07:18:12;;;;;;;4.07;2.90;;;25.50;99.90;;;;;;5022343;28;20025;-53
2023/06/04 07:20:38;;;;;;;3.47;3.17;;;25.50;99.90;;;;;;5035745;28;20363;-53
2023/06/04 07:23:04;;;;;;;2.75;2.50;;;25.60;99.90;;;;;;5034142;28;20018;-53
2023/06/04 07:25:30;;;;;;;3.03;2.80;;;25.50;99.90;;;;;;5035384;28;20026;-52
2023/06/04 07:27:58;;;;;;;4.25;2.80;;;25.60;99.90;;;;;;5035320;28;20036;-53
2023/06/04 07:30:25;;;;;;;6.70;3.13;;;25.60;99.90;;;;;;5035415;28;20047;-53
2023/06/04 07:32:51;;;;;;;3.43;2.80;;;25.60;99.90;;;;;;5035391;28;20040;-53
2023/06/04 07:35:17;;;;;;;3.05;2.75;;;25.50;99.90;;;;;;5035234;28;20258;-53
2023/06/04 07:37:45;;;;;;;3.97;2.97;;;25.60;99.90;;;;;;5023273;28;20033;-53
2023/06/04 07:40:11;;;;;;;4.25;3.03;;;25.60;99.90;;;;;;5035294;28;20021;-52
2023/06/04 07:42:37;;;;;;;4.13;3.40;;;25.60;99.90;;;;;;5035048;28;20018;-53
2023/06/04 07:45:03;;;;;;;2.90;2.60;;;25.60;99.90;;;;;;5034867;28;20041;-54
2023/06/04 07:47:29;;;;;;;4.75;3.30;;;25.60;99.90;;;;;;5035184;28;20041;-54
2023/06/04 07:49:55;;;;;;;5.40;3.22;;;25.60;99.90;;;;;;5034890;28;20030;-53
2023/06/04 07:52:21;;;;;;;3.50;3.08;;;25.60;99.90;;;;;;5034973;28;20025;-54
2023/06/04 07:54:46;;;;;;;4.93;3.10;;;25.60;99.90;;;;;;5034918;28;20021;-53
2023/06/04 07:57:12;;;;;;;5.43;3.42;;;25.60;99.90;;;;;;5035037;28;20033;-55
2023/06/04 07:59:38;;;;;;;3.75;3.38;;;25.60;99.90;;;;;;5034782;28;20021;-54
2023/06/04 08:02:04;;;;;;;3.88;3.13;;;25.60;99.90;;;;;;5032773;28;20452;-55
2023/06/04 08:04:31;;;;;;;11.45;4.05;;;25.60;99.90;;;;;;5034616;28;20021;-54
2023/06/04 08:06:57;;;;;;;4.05;3.28;;;25.60;99.90;;;;;;5034703;28;20025;-55
2023/06/04 08:09:22;;;;;;;6.13;3.70;;;25.60;99.90;;;;;;5016008;28;20078;-53
2023/06/04 08:11:49;;;;;;;5.50;3.85;;;25.60;99.90;;;;;;5042075;28;20017;-54
2023/06/04 08:14:15;;;;;;;5.35;3.78;;;25.60;99.90;;;;;;5038390;28;20028;-55
2023/06/04 08:16:41;;;;;;;5.70;4.00;;;25.70;99.90;;;;;;5034254;28;20025;-54
2023/06/04 08:19:07;;;;;;;8.32;4.07;;;25.60;99.90;;;;;;5033233;28;20022;-53
2023/06/04 08:21:34;;;;;;;5.53;3.92;;;25.60;99.90;;;;;;5034273;28;20044;-52
2023/06/04 08:24:00;;;;;;;29.63;4.78;;;25.60;99.90;;;;;;5033071;28;20025;-55
2023/06/04 08:26:29;;;;;;;7.28;4.70;;;25.60;99.90;;;;;;5016618;28;20394;-52
2023/06/04 08:28:55;;;;;;;6.25;3.90;;;25.60;99.90;;;;;;5015920;28;20033;-53
2023/06/04 08:31:21;;;;;;;4.47;3.67;;;25.60;99.90;;;;;;5033455;28;20550;-52
2023/06/04 08:33:47;;;;;;;4.75;4.30;;;25.60;99.90;;;;;;5015743;28;20037;-54
2023/06/04 08:36:14;;;;;;;5.65;4.03;;;25.70;99.90;;;;;;5034097;28;20029;-51
2023/06/04 08:38:40;;;;;;;8.90;3.90;;;25.70;99.90;;;;;;5033632;28;20113;-51
2023/06/04 08:41:15;;;;;;;5.47;3.85;;;25.70;99.90;;;;;;5033920;28;20108;-53
2023/06/04 08:43:43;;;;;;;9.13;4.55;;;25.70;99.90;;;;;;5033825;28;20025;-53
2023/06/04 08:46:09;;;;;;;5.25;4.22;;;25.70;99.90;;;;;;5033536;28;20029;-54
2023/06/04 08:48:37;;;;;;;5.60;4.20;;;25.70;99.90;;;;;;5033221;28;20044;-53
2023/06/04 08:51:08;;;;;;;6.65;4.30;;;25.70;99.90;;;;;;5033807;28;20527;-54
2023/06/04 08:53:35;;;;;;;5.70;4.40;;;25.70;99.90;;;;;;5033464;28;20052;-54
2023/06/04 08:56:01;;;;;;;4.87;3.80;;;25.70;99.90;;;;;;5015791;28;20064;-55
2023/06/04 08:58:33;;;;;;;9.30;5.25;;;25.70;99.90;;;;;;5033681;28;20266;-54
2023/06/04 09:01:00;;;;;;;6.65;4.38;;;25.60;99.90;;;;;;5032905;28;20099;-54
2023/06/04 09:03:26;;;;;;;;;;;25.50;99.90;;;;;;5034032;28;20041;-54
2023/06/04 09:05:52;;;;;;;8.02;4.10;;;25.50;99.90;;;;;;5033346;28;19956;-55
2023/06/04 09:08:21;;;;;;;6.82;4.00;;;25.40;99.90;;;;;;5033739;28;20474;-55
2023/06/04 09:10:51;;;;;;;6.45;4.03;;;25.40;99.90;;;;;;5033431;28;20091;-55
2023/06/04 09:13:18;;;;;;;13.20;5.45;;;25.30;99.90;;;;;;5033878;28;20025;-54
2023/06/04 09:15:44;;;;;;;7.15;3.92;;;25.20;99.90;;;;;;5033084;28;20064;-55
2023/06/04 09:18:12;;;;;;;7.70;4.28;;;25.20;99.90;;;;;;5032893;28;20389;-55
2023/06/04 09:20:38;;;;;;;;;;;25.10;99.90;;;;;;5033766;28;20524;-55
2023/06/04 09:23:14;;;;;;;8.63;4.88;;;25.10;99.90;;;;;;5015363;28;19905;-53
2023/06/04 09:25:43;;;;;;;8.65;4.20;;;25.10;99.90;;;;;;5032805;28;20524;-53
2023/06/04 09:28:09;;;;;;;6.13;3.65;;;25.00;99.90;;;;;;5033003;28;20033;-53
2023/06/04 09:30:35;;;;;;;8.77;4.38;;;25.00;99.90;;;;;;5032802;28;20485;-53
2023/06/04 09:33:12;;;;;;;9.70;4.55;;;25.00;99.90;;;;;;5032777;28;20017;-56
2023/06/04 09:35:37;;;;;;;5.25;3.15;;;25.00;99.90;;;;;;5032850;28;20453;-54
2023/06/04 09:38:05;;;;;;;7.28;4.45;;;25.00;99.90;;;;;;5033160;28;20035;-53
2023/06/04 09:40:38;;;;;;;6.35;3.78;;;25.00;99.90;;;;;;5014961;28;20033;-54
2023/06/04 09:43:04;;;;;;;6.45;4.05;;;25.00;99.90;;;;;;5032647;28;20029;-53
2023/06/04 09:45:31;;;;;;;6.93;3.38;;;25.10;99.90;;;;;;5032958;28;20025;-52
2023/06/04 09:47:58;;;;;;;8.88;3.67;;;25.00;99.90;;;;;;5031806;28;20021;-53
2023/06/04 09:50:29;;;;;;;9.65;4.50;;;25.10;99.90;;;;;;5014616;28;20029;-52
2023/06/04 09:52:56;;;;;;;7.25;4.68;;;25.10;99.90;;;;;;5032117;28;20014;-53
2023/06/04 09:55:22;;;;;;;8.50;4.17;;;25.10;99.90;;;;;;5031716;28;20022;-53
2023/06/04 09:57:50;;;;;;;9.40;4.70;;;25.20;99.90;;;;;;5031720;28;20025;-54
2023/06/04 10:00:23;;;;;;;6.25;3.95;;;25.20;99.90;;;;;;5013666;28;20108;-52
2023/06/04 10:02:55;;;;;;;9.13;4.13;;;25.20;99.90;;;;;;5031728;28;20179;-54
2023/06/04 10:05:22;;;;;;;6.10;4.07;;;25.30;99.90;;;;;;5031787;28;20060;-54
2023/06/04 10:07:52;;;;;;;6.68;3.92;;;25.30;99.90;;;;;;5031924;28;20028;-55
2023/06/04 10:10:20;;;;;;;6.63;4.07;;;25.30;99.90;;;;;;5031450;28;20537;-55
2023/06/04 10:12:50;;;;;;;6.35;3.92;;;25.30;99.90;;;;;;5032021;28;20486;-53
2023/06/04 10:15:17;;;;;;;7.15;4.07;;;25.30;99.90;;;;;;5031966;28;20022;-51
2023/06/04 10:17:43;;;;;;;7.75;3.85;;;25.20;99.90;;;;;;5031340;28;20057;-55
2023/06/04 10:20:11;;;;;;;7.88;3.75;;;25.20;99.90;;;;;;5012741;28;20049;-52
2023/06/04 10:22:39;;;;;;;7.25;4.28;;;25.20;99.90;;;;;;5030887;28;20535;-53
2023/06/04 10:25:06;;;;;;;6.57;4.95;;;25.20;99.90;;;;;;5032040;28;20128;-56
2023/06/04 10:27:32;;;;;;;8.13;3.67;;;25.20;99.90;;;;;;5023672;28;20433;-54
2023/06/04 10:29:58;;;;;;;8.43;5.00;;;25.20;99.90;;;;;;5036448;28;20108;-53
2023/06/04 10:32:28;;;;;;;7.95;4.07;;;25.20;99.90;;;;;;5035561;28;20099;-53
2023/06/04 10:34:55;;;;;;;7.40;4.95;;;25.20;99.90;;;;;;5037602;28;20052;-55
2023/06/04 10:37:25;;;;;;;9.32;4.18;;;25.20;99.90;;;;;;5034703;28;20025;-55
2023/06/04 10:39:53;;;;;;;5.47;4.28;;;25.20;99.90;;;;;;5035703;28;20432;-56
2023/06/04 10:42:20;;;;;;;;;;;25.20;99.90;;;;;;5036553;28;20025;-55
2023/06/04 10:44:47;;;;;;;;;;;25.20;99.90;;;;;;5034735;28;20050;-51
2023/06/04 10:47:24;;;;;;;9.30;4.55;;;25.20;99.90;;;;;;5044422;28;19917;-51
2023/06/04 10:49:54;;;;;;;12.40;5.80;;;25.20;99.90;;;;;;5034602;28;20192;-51
2023/06/04 10:52:21;;;;;;;8.95;4.03;;;25.20;99.90;;;;;;5034834;28;20036;-52
2023/06/04 10:54:48;;;;;;;8.70;3.67;;;25.20;99.90;;;;;;5034951;28;20044;-52
2023/06/04 10:57:16;;;;;;;6.18;3.92;;;25.20;99.90;;;;;;5034584;28;20033;-52
2023/06/04 10:59:54;;;;;;;8.13;4.07;;;25.30;99.90;;;;;;5035034;28;20029;-52
2023/06/04 11:02:20;;;;;;;6.90;3.28;;;25.30;99.90;;;;;;5034717;28;20072;-52
2023/06/04 11:04:47;;;;;;;10.18;4.22;;;25.30;99.90;;;;;;5031717;28;20451;-51
2023/06/04 11:07:13;;;;;;;6.60;3.50;;;25.30;99.90;;;;;;5034810;28;20030;-53
2023/06/04 11:09:48;;;;;;;13.25;3.83;;;25.30;99.90;;;;;;5034511;28;20047;-51
2023/06/04 11:12:14;;;;;;;6.82;3.85;;;25.30;99.90;;;;;;5034817;28;20033;-54
2023/06/04 11:14:40;;;;;;;14.07;5.88;;;25.30;99.90;;;;;;5034418;28;20066;-54
2023/06/04 11:17:13;;;;;;;10.02;4.68;;;25.40;99.90;;;;;;5020715;28;20516;-51
2023/06/04 11:19:39;;;;;;;10.07;3.83;;;25.40;99.90;;;;;;5038725;28;20025;-52
2023/06/04 11:22:06;;;;;;;11.10;4.45;;;25.40;99.90;;;;;;5041036;28;20036;-52
2023/06/04 11:24:32;;;;;;;8.48;4.75;;;25.30;99.90;;;;;;5045808;28;20060;-54
2023/06/04 11:27:02;;;;;;;10.68;6.28;;;25.30;99.90;;;;;;5034613;28;20033;-55
2023/06/04 11:29:28;;;;;;;8.02;5.15;;;25.30;99.90;;;;;;5034390;28;20025;-55
2023/06/04 11:31:54;;;;;;;10.18;4.40;;;25.30;99.90;;;;;;5034346;28;20049;-55
2023/06/04 11:34:27;;;;;;;9.82;4.85;;;25.30;99.90;;;;;;5034334;28;20595;-57
2023/06/04 11:36:54;;;;;;;11.45;4.65;;;25.30;99.90;;;;;;5045525;28;20033;-58
2023/06/04 11:39:20;;;;;;;9.40;4.00;;;25.30;99.90;;;;;;5033863;28;20030;-56
2023/06/04 11:41:46;;;;;;;4.67;3.40;;;25.30;99.90;;;;;;5034556;28;20037;-55
2023/06/04 11:44:13;;;;;;;8.15;4.22;;;25.40;99.90;;;;;;5034576;28;20255;-55
2023/06/04 11:46:48;;;;;;;11.85;5.15;;;25.40;99.90;;;;;;5033938;28;20033;-54
2023/06/04 11:49:18;;;;;;;11.70;4.45;;;25.50;99.90;;;;;;5016027;28;20527;-55
2023/06/04 11:51:48;;;;;;;13.98;4.35;;;25.50;99.90;;;;;;5033737;28;20503;-56
2023/06/04 11:54:15;;;;;;;5.75;3.88;;;25.50;99.90;;;;;;5041857;28;20034;-56
2023/06/04 11:56:45;;;;;;;6.13;2.90;;;25.50;99.90;;;;;;5020092;28;20040;-55
2023/06/04 11:59:16;;;;;;;9.30;4.85;;;25.50;99.90;;;;;;5023015;28;20049;-54
2023/06/04 12:01:43;;;;;;;7.32;4.85;;;25.50;99.90;;;;;;5033433;28;20081;-55
2023/06/04 12:04:17;;;;;;;11.23;5.03;;;25.40;99.90;;;;;;5033957;28;20025;-55
2023/06/04 12:06:53;;;;;;;8.75;4.78;;;25.40;99.90;;;;;;5033376;28;20044;-55
2023/06/04 12:09:23;;;;;;;7.47;3.78;;;25.40;99.90;;;;;;5032962;28;20037;-54
2023/06/04 12:11:49;;;;;;;10.73;4.82;;;25.40;99.90;;;;;;5000002;28;20044;-54
2023/06/04 12:14:18;;;;;;;10.52;4.43;;;25.40;99.90;;;;;;5015974;28;20112;-55
2023/06/04 12:17:00;;;;;;;12.13;5.38;;;25.40;99.90;;;;;;5033632;28;20026;-54
2023/06/04 12:19:27;;;;;;;8.68;4.78;;;25.30;99.90;;;;;;5032342;28;20028;-55
2023/06/04 12:22:19;;;;;;;6.60;3.17;;;25.30;99.90;;;;;;5033834;28;20616;-55
2023/06/04 12:24:53;;;;;;;9.15;4.38;;;25.30;99.90;;;;;;5030745;28;20029;-54
2023/06/04 12:27:19;;;;;;;10.52;4.55;;;25.30;99.90;;;;;;5033214;28;20048;-54
2023/06/04 12:29:56;;;;;;;8.13;5.50;;;25.30;99.90;;;;;;5033210;28;21185;-54
2023/06/04 12:32:22;;;;;;;;;;;25.30;99.90;;;;;;5044826;28;20144;-55
2023/06/04 12:34:48;;;;;;;19.48;12.43;;;25.30;99.90;;;;;;5033577;28;19933;-56
2023/06/04 12:37:14;;;;;;;16.35;10.15;;;25.40;99.90;;;;;;5033376;28;20021;-55
2023/06/04 12:39:40;;;;;;;22.83;12.95;;;25.40;99.90;;;;;;5032772;28;20363;-56
2023/06/04 12:42:08;;;;;;;21.40;12.50;;;25.40;99.90;;;;;;5033127;28;20108;-55
2023/06/04 12:44:36;;;;;;;14.02;7.10;;;25.40;99.90;;;;;;5032944;28;20458;-51
2023/06/04 12:47:05;;;;;;;16.80;8.65;;;25.40;99.90;;;;;;5032734;28;20076;-53
2023/06/04 12:49:30;;;;;;;7.88;5.65;;;25.40;99.90;;;;;;5032400;28;20544;-53